sensor_id;sensor_type;location;lat;lon;timestamp;temperature;humidity
64924;HTU21D;51436;44.692;39.214;2022-07-29T00:00:23;20.74;71.13
64924;HTU21D;51436;44.692;39.214;2022-07-29T00:03:02;20.72;71.09
64924;HTU21D;51436;44.692;39.214;2022-07-29T00:05:29;20.70;71.23
64924;HTU21D;51436;44.692;39.214;2022-07-29T00:07:55;20.68;71.26
64924;HTU21D;51436;44.692;39.214;2022-07-29T00:10:22;20.69;71.19
64924;HTU21D;51436;44.692;39.214;2022-07-29T00:12:49;20.63;71.21
64924;HTU21D;51436;44.692;39.214;2022-07-29T00:15:15;20.63;71.19
64924;HTU21D;51436;44.692;39.214;2022-07-29T00:17:42;20.60;71.20
64924;HTU21D;51436;44.692;39.214;2022-07-29T00:20:09;20.59;71.29
64924;HTU21D;51436;44.692;39.214;2022-07-29T00:22:38;20.56;71.26
64924;HTU21D;51436;44.692;39.214;2022-07-29T00:25:05;20.55;71.25
64924;HTU21D;51436;44.692;39.214;2022-07-29T00:27:32;20.56;71.25
64924;HTU21D;51436;44.692;39.214;2022-07-29T00:29:59;20.53;71.26
64924;HTU21D;51436;44.692;39.214;2022-07-29T00:32:25;20.49;71.35
64924;HTU21D;51436;44.692;39.214;2022-07-29T00:34:52;20.48;71.34
64924;HTU21D;51436;44.692;39.214;2022-07-29T00:37:37;20.44;71.38
64924;HTU21D;51436;44.692;39.214;2022-07-29T00:40:03;20.43;71.35
64924;HTU21D;51436;44.692;39.214;2022-07-29T00:42:30;20.42;71.32
64924;HTU21D;51436;44.692;39.214;2022-07-29T00:45:20;20.35;71.32
64924;HTU21D;51436;44.692;39.214;2022-07-29T00:47:48;20.28;71.53
64924;HTU21D;51436;44.692;39.214;2022-07-29T00:50:15;20.26;71.49
64924;HTU21D;51436;44.692;39.214;2022-07-29T00:52:42;20.22;71.45
64924;HTU21D;51436;44.692;39.214;2022-07-29T00:55:12;20.20;71.43
64924;HTU21D;51436;44.692;39.214;2022-07-29T00:57:40;20.22;71.34
64924;HTU21D;51436;44.692;39.214;2022-07-29T01:00:18;20.20;71.31
64924;HTU21D;51436;44.692;39.214;2022-07-29T01:02:46;20.14;71.50
64924;HTU21D;51436;44.692;39.214;2022-07-29T01:05:21;20.11;71.54
64924;HTU21D;51436;44.692;39.214;2022-07-29T01:07:49;20.11;71.51
64924;HTU21D;51436;44.692;39.214;2022-07-29T01:10:18;20.11;71.48
64924;HTU21D;51436;44.692;39.214;2022-07-29T01:12:49;20.12;71.42
64924;HTU21D;51436;44.692;39.214;2022-07-29T01:15:32;20.11;71.38
64924;HTU21D;51436;44.692;39.214;2022-07-29T01:18:18;20.13;71.20
64924;HTU21D;51436;44.692;39.214;2022-07-29T01:20:57;20.12;71.19
64924;HTU21D;51436;44.692;39.214;2022-07-29T01:34:46;19.97;71.25
64924;HTU21D;51436;44.692;39.214;2022-07-29T01:37:36;19.96;71.30
64924;HTU21D;51436;44.692;39.214;2022-07-29T01:40:05;19.94;71.36
64924;HTU21D;51436;44.692;39.214;2022-07-29T01:42:41;19.89;71.41
64924;HTU21D;51436;44.692;39.214;2022-07-29T01:45:14;19.88;71.44
64924;HTU21D;51436;44.692;39.214;2022-07-29T01:48:03;19.88;71.33
64924;HTU21D;51436;44.692;39.214;2022-07-29T01:50:37;19.87;71.34
64924;HTU21D;51436;44.692;39.214;2022-07-29T01:53:08;19.87;71.38
64924;HTU21D;51436;44.692;39.214;2022-07-29T01:55:39;19.84;71.42
64924;HTU21D;51436;44.692;39.214;2022-07-29T01:58:07;19.83;71.40
64924;HTU21D;51436;44.692;39.214;2022-07-29T02:00:34;19.84;71.27
64924;HTU21D;51436;44.692;39.214;2022-07-29T02:03:05;19.81;71.27
64924;HTU21D;51436;44.692;39.214;2022-07-29T02:05:35;19.77;71.35
64924;HTU21D;51436;44.692;39.214;2022-07-29T02:08:04;19.75;71.36
64924;HTU21D;51436;44.692;39.214;2022-07-29T02:10:36;19.72;71.37
64924;HTU21D;51436;44.692;39.214;2022-07-29T02:13:05;19.70;71.44
64924;HTU21D;51436;44.692;39.214;2022-07-29T02:15:34;19.71;71.36
64924;HTU21D;51436;44.692;39.214;2022-07-29T02:18:17;19.73;71.22
64924;HTU21D;51436;44.692;39.214;2022-07-29T02:20:56;19.77;71.11
64924;HTU21D;51436;44.692;39.214;2022-07-29T02:23:24;19.83;70.93
64924;HTU21D;51436;44.692;39.214;2022-07-29T02:25:56;19.85;70.85
64924;HTU21D;51436;44.692;39.214;2022-07-29T02:28:26;20.00;70.60
64924;HTU21D;51436;44.692;39.214;2022-07-29T02:30:56;20.46;69.56
64924;HTU21D;51436;44.692;39.214;2022-07-29T02:33:24;21.02;68.15
64924;HTU21D;51436;44.692;39.214;2022-07-29T02:35:52;21.52;66.93
64924;HTU21D;51436;44.692;39.214;2022-07-29T02:38:20;22.02;65.84
64924;HTU21D;51436;44.692;39.214;2022-07-29T02:41:12;22.52;64.92
64924;HTU21D;51436;44.692;39.214;2022-07-29T02:43:40;22.86;64.78
64924;HTU21D;51436;44.692;39.214;2022-07-29T02:46:11;23.39;63.15
64924;HTU21D;51436;44.692;39.214;2022-07-29T02:48:46;23.81;62.05
64924;HTU21D;51436;44.692;39.214;2022-07-29T02:51:23;24.25;60.72
64924;HTU21D;51436;44.692;39.214;2022-07-29T02:53:53;24.55;59.59
64924;HTU21D;51436;44.692;39.214;2022-07-29T02:56:25;24.68;58.99
64924;HTU21D;51436;44.692;39.214;2022-07-29T02:58:57;24.47;59.39
64924;HTU21D;51436;44.692;39.214;2022-07-29T03:01:25;24.05;60.41
64924;HTU21D;51436;44.692;39.214;2022-07-29T03:03:56;23.70;61.49
64924;HTU21D;51436;44.692;39.214;2022-07-29T03:06:26;23.49;62.09
64924;HTU21D;51436;44.692;39.214;2022-07-29T03:08:54;23.34;62.61
64924;HTU21D;51436;44.692;39.214;2022-07-29T03:11:21;23.22;63.05
64924;HTU21D;51436;44.692;39.214;2022-07-29T03:13:48;23.17;63.21
64924;HTU21D;51436;44.692;39.214;2022-07-29T03:16:15;23.15;63.30
64924;HTU21D;51436;44.692;39.214;2022-07-29T03:18:42;23.16;63.31
64924;HTU21D;51436;44.692;39.214;2022-07-29T03:21:09;23.20;63.29
64924;HTU21D;51436;44.692;39.214;2022-07-29T03:23:35;23.26;63.26
64924;HTU21D;51436;44.692;39.214;2022-07-29T03:26:10;23.31;63.18
64924;HTU21D;51436;44.692;39.214;2022-07-29T03:28:37;23.39;63.18
64924;HTU21D;51436;44.692;39.214;2022-07-29T03:31:03;23.44;63.14
64924;HTU21D;51436;44.692;39.214;2022-07-29T03:33:31;23.51;63.12
64924;HTU21D;51436;44.692;39.214;2022-07-29T03:35:59;23.56;63.15
64924;HTU21D;51436;44.692;39.214;2022-07-29T03:38:30;23.64;63.11
64924;HTU21D;51436;44.692;39.214;2022-07-29T03:41:01;23.73;63.06
64924;HTU21D;51436;44.692;39.214;2022-07-29T03:43:36;23.83;63.02
64924;HTU21D;51436;44.692;39.214;2022-07-29T03:46:08;23.88;62.99
64924;HTU21D;51436;44.692;39.214;2022-07-29T03:48:39;23.94;62.97
64924;HTU21D;51436;44.692;39.214;2022-07-29T03:51:08;24.03;62.86
64924;HTU21D;51436;44.692;39.214;2022-07-29T03:53:35;24.09;62.78
64924;HTU21D;51436;44.692;39.214;2022-07-29T03:56:03;24.13;62.83
64924;HTU21D;51436;44.692;39.214;2022-07-29T03:58:32;24.24;62.59
64924;HTU21D;51436;44.692;39.214;2022-07-29T04:00:59;24.30;62.57
64924;HTU21D;51436;44.692;39.214;2022-07-29T04:03:26;24.40;62.53
64924;HTU21D;51436;44.692;39.214;2022-07-29T04:06:04;24.51;62.44
64924;HTU21D;51436;44.692;39.214;2022-07-29T04:08:34;24.57;62.40
64924;HTU21D;51436;44.692;39.214;2022-07-29T04:11:01;24.63;62.40
64924;HTU21D;51436;44.692;39.214;2022-07-29T04:13:28;24.73;62.31
64924;HTU21D;51436;44.692;39.214;2022-07-29T04:15:55;24.77;62.20
64924;HTU21D;51436;44.692;39.214;2022-07-29T04:18:21;24.85;62.09
64924;HTU21D;51436;44.692;39.214;2022-07-29T04:20:48;24.93;62.15
64924;HTU21D;51436;44.692;39.214;2022-07-29T04:23:14;24.97;62.06
64924;HTU21D;51436;44.692;39.214;2022-07-29T04:25:41;25.05;62.15
64924;HTU21D;51436;44.692;39.214;2022-07-29T04:28:09;25.20;61.88
64924;HTU21D;51436;44.692;39.214;2022-07-29T04:30:36;25.32;61.66
64924;HTU21D;51436;44.692;39.214;2022-07-29T04:33:05;25.42;61.58
64924;HTU21D;51436;44.692;39.214;2022-07-29T04:35:35;25.50;61.47
64924;HTU21D;51436;44.692;39.214;2022-07-29T04:38:02;25.58;61.34
64924;HTU21D;51436;44.692;39.214;2022-07-29T04:40:29;25.64;61.25
64924;HTU21D;51436;44.692;39.214;2022-07-29T04:42:56;25.77;61.34
64924;HTU21D;51436;44.692;39.214;2022-07-29T04:45:22;25.87;61.04
64924;HTU21D;51436;44.692;39.214;2022-07-29T04:47:49;25.98;61.01
64924;HTU21D;51436;44.692;39.214;2022-07-29T04:50:16;26.07;60.83
64924;HTU21D;51436;44.692;39.214;2022-07-29T04:52:43;26.10;60.83
64924;HTU21D;51436;44.692;39.214;2022-07-29T04:55:10;26.18;60.89
64924;HTU21D;51436;44.692;39.214;2022-07-29T04:57:36;26.24;60.72
64924;HTU21D;51436;44.692;39.214;2022-07-29T05:00:04;26.26;60.84
64924;HTU21D;51436;44.692;39.214;2022-07-29T05:02:31;26.31;60.81
64924;HTU21D;51436;44.692;39.214;2022-07-29T05:04:57;26.37;60.87
64924;HTU21D;51436;44.692;39.214;2022-07-29T05:07:24;26.42;60.74
64924;HTU21D;51436;44.692;39.214;2022-07-29T05:09:51;26.49;60.87
64924;HTU21D;51436;44.692;39.214;2022-07-29T05:12:17;26.53;60.76
64924;HTU21D;51436;44.692;39.214;2022-07-29T05:15:07;26.60;60.83
64924;HTU21D;51436;44.692;39.214;2022-07-29T05:17:33;26.66;60.99
64924;HTU21D;51436;44.692;39.214;2022-07-29T05:19:59;26.72;61.07
64924;HTU21D;51436;44.692;39.214;2022-07-29T05:22:26;26.78;60.88
64924;HTU21D;51436;44.692;39.214;2022-07-29T05:24:52;26.81;60.96
64924;HTU21D;51436;44.692;39.214;2022-07-29T05:27:19;26.86;61.01
64924;HTU21D;51436;44.692;39.214;2022-07-29T05:29:45;26.91;61.13
64924;HTU21D;51436;44.692;39.214;2022-07-29T05:32:12;26.83;61.13
64924;HTU21D;51436;44.692;39.214;2022-07-29T05:34:40;26.84;61.31
64924;HTU21D;51436;44.692;39.214;2022-07-29T05:37:07;26.83;61.16
64924;HTU21D;51436;44.692;39.214;2022-07-29T05:39:33;26.89;60.89
64924;HTU21D;51436;44.692;39.214;2022-07-29T05:42:00;26.89;60.91
64924;HTU21D;51436;44.692;39.214;2022-07-29T05:44:26;26.94;60.80
64924;HTU21D;51436;44.692;39.214;2022-07-29T05:46:53;26.89;60.38
64924;HTU21D;51436;44.692;39.214;2022-07-29T05:49:19;26.87;60.29
64924;HTU21D;51436;44.692;39.214;2022-07-29T05:51:45;26.78;60.44
64924;HTU21D;51436;44.692;39.214;2022-07-29T05:54:13;26.78;60.64
64924;HTU21D;51436;44.692;39.214;2022-07-29T05:56:39;26.80;60.59
64924;HTU21D;51436;44.692;39.214;2022-07-29T05:59:06;26.78;61.01
64924;HTU21D;51436;44.692;39.214;2022-07-29T06:01:32;26.71;61.12
64924;HTU21D;51436;44.692;39.214;2022-07-29T06:03:58;26.72;60.99
64924;HTU21D;51436;44.692;39.214;2022-07-29T06:06:25;26.73;60.54
64924;HTU21D;51436;44.692;39.214;2022-07-29T06:08:51;26.68;60.54
64924;HTU21D;51436;44.692;39.214;2022-07-29T06:11:17;26.68;60.53
64924;HTU21D;51436;44.692;39.214;2022-07-29T06:13:44;26.69;60.93
64924;HTU21D;51436;44.692;39.214;2022-07-29T06:16:10;26.76;60.64
64924;HTU21D;51436;44.692;39.214;2022-07-29T06:18:36;26.78;60.60
64924;HTU21D;51436;44.692;39.214;2022-07-29T06:21:07;26.83;60.55
64924;HTU21D;51436;44.692;39.214;2022-07-29T06:23:35;26.86;60.52
64924;HTU21D;51436;44.692;39.214;2022-07-29T06:26:02;26.94;60.44
64924;HTU21D;51436;44.692;39.214;2022-07-29T06:28:29;26.95;60.31
64924;HTU21D;51436;44.692;39.214;2022-07-29T06:30:55;27.01;60.23
64924;HTU21D;51436;44.692;39.214;2022-07-29T06:33:21;27.06;60.39
64924;HTU21D;51436;44.692;39.214;2022-07-29T06:35:48;27.06;59.92
64924;HTU21D;51436;44.692;39.214;2022-07-29T06:38:15;27.12;59.67
64924;HTU21D;51436;44.692;39.214;2022-07-29T06:40:44;27.16;59.54
64924;HTU21D;51436;44.692;39.214;2022-07-29T06:43:39;27.21;59.44
64924;HTU21D;51436;44.692;39.214;2022-07-29T06:46:14;27.27;59.13
64924;HTU21D;51436;44.692;39.214;2022-07-29T06:48:41;27.35;59.03
64924;HTU21D;51436;44.692;39.214;2022-07-29T06:51:09;27.41;58.48
64924;HTU21D;51436;44.692;39.214;2022-07-29T06:53:36;27.43;58.29
64924;HTU21D;51436;44.692;39.214;2022-07-29T06:56:04;27.49;58.84
64924;HTU21D;51436;44.692;39.214;2022-07-29T06:58:31;27.57;58.50
64924;HTU21D;51436;44.692;39.214;2022-07-29T07:01:00;27.64;58.84
64924;HTU21D;51436;44.692;39.214;2022-07-29T07:03:27;27.71;58.52
64924;HTU21D;51436;44.692;39.214;2022-07-29T07:05:54;27.75;58.31
64924;HTU21D;51436;44.692;39.214;2022-07-29T07:08:21;27.75;57.64
64924;HTU21D;51436;44.692;39.214;2022-07-29T07:10:48;27.75;57.74
64924;HTU21D;51436;44.692;39.214;2022-07-29T07:13:15;27.80;57.67
64924;HTU21D;51436;44.692;39.214;2022-07-29T07:15:44;27.80;57.90
64924;HTU21D;51436;44.692;39.214;2022-07-29T07:18:11;27.82;57.43
64924;HTU21D;51436;44.692;39.214;2022-07-29T07:20:38;27.87;57.23
64924;HTU21D;51436;44.692;39.214;2022-07-29T07:23:07;27.96;57.71
64924;HTU21D;51436;44.692;39.214;2022-07-29T07:25:33;28.08;57.80
64924;HTU21D;51436;44.692;39.214;2022-07-29T07:28:00;28.13;57.22
64924;HTU21D;51436;44.692;39.214;2022-07-29T07:30:26;28.16;57.43
64924;HTU21D;51436;44.692;39.214;2022-07-29T07:32:54;28.25;57.10
64924;HTU21D;51436;44.692;39.214;2022-07-29T07:35:21;28.29;56.29
64924;HTU21D;51436;44.692;39.214;2022-07-29T07:37:48;28.32;56.20
64924;HTU21D;51436;44.692;39.214;2022-07-29T07:40:14;28.40;56.39
64924;HTU21D;51436;44.692;39.214;2022-07-29T07:42:54;28.47;56.24
64924;HTU21D;51436;44.692;39.214;2022-07-29T07:45:21;28.53;55.31
64924;HTU21D;51436;44.692;39.214;2022-07-29T07:47:48;28.52;55.04
64924;HTU21D;51436;44.692;39.214;2022-07-29T07:50:15;28.56;55.00
64924;HTU21D;51436;44.692;39.214;2022-07-29T07:52:52;28.63;55.34
64924;HTU21D;51436;44.692;39.214;2022-07-29T07:55:19;28.72;55.16
64924;HTU21D;51436;44.692;39.214;2022-07-29T07:57:48;28.75;54.91
64924;HTU21D;51436;44.692;39.214;2022-07-29T08:00:15;28.78;54.86
64924;HTU21D;51436;44.692;39.214;2022-07-29T08:02:42;28.80;54.65
64924;HTU21D;51436;44.692;39.214;2022-07-29T08:05:09;28.82;53.56
64924;HTU21D;51436;44.692;39.214;2022-07-29T08:07:36;28.83;53.28
64924;HTU21D;51436;44.692;39.214;2022-07-29T08:10:03;28.91;53.26
64924;HTU21D;51436;44.692;39.214;2022-07-29T08:12:29;28.95;52.81
64924;HTU21D;51436;44.692;39.214;2022-07-29T08:14:56;28.98;52.11
64924;HTU21D;51436;44.692;39.214;2022-07-29T08:17:22;28.97;52.24
64924;HTU21D;51436;44.692;39.214;2022-07-29T08:19:48;29.02;52.30
64924;HTU21D;51436;44.692;39.214;2022-07-29T08:22:19;29.09;51.91
64924;HTU21D;51436;44.692;39.214;2022-07-29T08:24:45;29.09;51.37
64924;HTU21D;51436;44.692;39.214;2022-07-29T08:27:22;29.21;51.20
64924;HTU21D;51436;44.692;39.214;2022-07-29T08:30:11;29.28;51.87
64924;HTU21D;51436;44.692;39.214;2022-07-29T08:32:38;29.31;51.38
64924;HTU21D;51436;44.692;39.214;2022-07-29T08:35:08;29.29;51.40
64924;HTU21D;51436;44.692;39.214;2022-07-29T08:37:35;29.32;50.80
64924;HTU21D;51436;44.692;39.214;2022-07-29T08:40:01;29.36;50.37
64924;HTU21D;51436;44.692;39.214;2022-07-29T08:42:28;29.43;49.95
64924;HTU21D;51436;44.692;39.214;2022-07-29T08:44:54;29.44;49.40
64924;HTU21D;51436;44.692;39.214;2022-07-29T08:47:26;29.48;49.47
64924;HTU21D;51436;44.692;39.214;2022-07-29T08:49:54;29.51;50.41
64924;HTU21D;51436;44.692;39.214;2022-07-29T08:52:21;29.57;49.72
64924;HTU21D;51436;44.692;39.214;2022-07-29T08:54:51;29.59;49.15
64924;HTU21D;51436;44.692;39.214;2022-07-29T08:57:19;29.64;49.01
64924;HTU21D;51436;44.692;39.214;2022-07-29T08:59:48;29.71;48.67
64924;HTU21D;51436;44.692;39.214;2022-07-29T09:02:20;29.77;49.40
64924;HTU21D;51436;44.692;39.214;2022-07-29T09:04:47;29.81;48.85
64924;HTU21D;51436;44.692;39.214;2022-07-29T09:07:15;29.83;48.82
64924;HTU21D;51436;44.692;39.214;2022-07-29T09:09:42;29.88;48.85
64924;HTU21D;51436;44.692;39.214;2022-07-29T09:12:12;29.92;48.24
64924;HTU21D;51436;44.692;39.214;2022-07-29T09:14:38;29.94;48.05
64924;HTU21D;51436;44.692;39.214;2022-07-29T09:17:05;30.01;48.05
64924;HTU21D;51436;44.692;39.214;2022-07-29T09:19:36;30.05;47.44
64924;HTU21D;51436;44.692;39.214;2022-07-29T09:22:07;30.03;47.48
64924;HTU21D;51436;44.692;39.214;2022-07-29T09:24:44;30.07;47.09
64924;HTU21D;51436;44.692;39.214;2022-07-29T09:27:22;30.08;47.28
64924;HTU21D;51436;44.692;39.214;2022-07-29T09:30:08;30.09;47.18
64924;HTU21D;51436;44.692;39.214;2022-07-29T09:32:58;30.12;47.12
64924;HTU21D;51436;44.692;39.214;2022-07-29T09:35:28;30.18;47.20
64924;HTU21D;51436;44.692;39.214;2022-07-29T09:37:55;30.23;47.51
64924;HTU21D;51436;44.692;39.214;2022-07-29T09:40:25;30.32;46.97
64924;HTU21D;51436;44.692;39.214;2022-07-29T09:42:51;30.36;47.36
64924;HTU21D;51436;44.692;39.214;2022-07-29T09:45:32;30.36;47.33
64924;HTU21D;51436;44.692;39.214;2022-07-29T09:48:12;30.32;46.98
64924;HTU21D;51436;44.692;39.214;2022-07-29T09:50:41;30.33;46.93
64924;HTU21D;51436;44.692;39.214;2022-07-29T09:53:08;30.33;47.06
64924;HTU21D;51436;44.692;39.214;2022-07-29T09:55:50;30.36;47.47
64924;HTU21D;51436;44.692;39.214;2022-07-29T09:58:17;30.45;47.22
64924;HTU21D;51436;44.692;39.214;2022-07-29T10:00:56;30.52;47.43
64924;HTU21D;51436;44.692;39.214;2022-07-29T10:03:51;30.45;47.38
64924;HTU21D;51436;44.692;39.214;2022-07-29T10:06:18;30.39;47.34
64924;HTU21D;51436;44.692;39.214;2022-07-29T10:12:09;30.54;47.54
64924;HTU21D;51436;44.692;39.214;2022-07-29T10:14:41;30.65;47.60
64924;HTU21D;51436;44.692;39.214;2022-07-29T10:17:09;30.75;47.14
64924;HTU21D;51436;44.692;39.214;2022-07-29T10:19:37;30.83;46.73
64924;HTU21D;51436;44.692;39.214;2022-07-29T10:22:09;30.84;46.44
64924;HTU21D;51436;44.692;39.214;2022-07-29T10:24:36;30.74;46.62
64924;HTU21D;51436;44.692;39.214;2022-07-29T10:27:06;30.45;46.41
64924;HTU21D;51436;44.692;39.214;2022-07-29T10:29:32;30.20;46.87
64924;HTU21D;51436;44.692;39.214;2022-07-29T10:43:26;30.71;45.71
64924;HTU21D;51436;44.692;39.214;2022-07-29T10:46:00;30.68;45.61
64924;HTU21D;51436;44.692;39.214;2022-07-29T10:48:27;30.71;45.70
64924;HTU21D;51436;44.692;39.214;2022-07-29T10:50:56;30.79;46.08
64924;HTU21D;51436;44.692;39.214;2022-07-29T10:53:23;30.90;46.28
64924;HTU21D;51436;44.692;39.214;2022-07-29T10:55:51;30.98;45.61
64924;HTU21D;51436;44.692;39.214;2022-07-29T10:58:23;30.99;45.27
64924;HTU21D;51436;44.692;39.214;2022-07-29T11:00:51;30.90;45.12
64924;HTU21D;51436;44.692;39.214;2022-07-29T11:03:46;30.85;45.48
64924;HTU21D;51436;44.692;39.214;2022-07-29T11:06:15;30.94;44.74
64924;HTU21D;51436;44.692;39.214;2022-07-29T11:08:42;30.94;44.28
64924;HTU21D;51436;44.692;39.214;2022-07-29T11:13:51;30.50;45.23
64924;HTU21D;51436;44.692;39.214;2022-07-29T11:16:23;30.56;44.96
64924;HTU21D;51436;44.692;39.214;2022-07-29T11:21:44;30.85;45.07
64924;HTU21D;51436;44.692;39.214;2022-07-29T11:24:28;30.99;44.74
64924;HTU21D;51436;44.692;39.214;2022-07-29T11:27:12;31.08;44.54
64924;HTU21D;51436;44.692;39.214;2022-07-29T11:29:58;31.13;44.18
64924;HTU21D;51436;44.692;39.214;2022-07-29T11:32:41;31.10;44.29
64924;HTU21D;51436;44.692;39.214;2022-07-29T11:35:17;31.11;44.31
64924;HTU21D;51436;44.692;39.214;2022-07-29T11:37:45;31.14;44.48
64924;HTU21D;51436;44.692;39.214;2022-07-29T11:40:13;31.20;43.98
64924;HTU21D;51436;44.692;39.214;2022-07-29T11:42:48;31.24;43.71
64924;HTU21D;51436;44.692;39.214;2022-07-29T11:45:17;31.24;43.88
64924;HTU21D;51436;44.692;39.214;2022-07-29T11:48:03;31.25;43.92
64924;HTU21D;51436;44.692;39.214;2022-07-29T11:50:32;31.28;43.39
64924;HTU21D;51436;44.692;39.214;2022-07-29T11:53:00;31.30;42.88
64924;HTU21D;51436;44.692;39.214;2022-07-29T11:55:27;31.27;42.87
64924;HTU21D;51436;44.692;39.214;2022-07-29T11:57:54;31.30;42.86
64924;HTU21D;51436;44.692;39.214;2022-07-29T12:00:24;31.33;42.95
64924;HTU21D;51436;44.692;39.214;2022-07-29T12:02:51;31.37;42.82
64924;HTU21D;51436;44.692;39.214;2022-07-29T12:05:18;31.33;42.48
64924;HTU21D;51436;44.692;39.214;2022-07-29T12:07:48;31.36;43.37
64924;HTU21D;51436;44.692;39.214;2022-07-29T12:10:30;31.35;43.52
64924;HTU21D;51436;44.692;39.214;2022-07-29T12:12:56;31.16;43.19
64924;HTU21D;51436;44.692;39.214;2022-07-29T12:15:51;31.14;43.27
64924;HTU21D;51436;44.692;39.214;2022-07-29T12:18:18;31.22;43.06
64924;HTU21D;51436;44.692;39.214;2022-07-29T12:20:47;31.27;42.58
64924;HTU21D;51436;44.692;39.214;2022-07-29T12:23:14;31.37;42.42
64924;HTU21D;51436;44.692;39.214;2022-07-29T12:25:43;31.41;42.21
64924;HTU21D;51436;44.692;39.214;2022-07-29T12:28:12;31.42;41.86
64924;HTU21D;51436;44.692;39.214;2022-07-29T12:31:14;31.41;42.24
64924;HTU21D;51436;44.692;39.214;2022-07-29T12:33:44;31.37;42.42
64924;HTU21D;51436;44.692;39.214;2022-07-29T12:36:18;31.38;42.01
64924;HTU21D;51436;44.692;39.214;2022-07-29T12:39:04;31.37;42.00
64924;HTU21D;51436;44.692;39.214;2022-07-29T12:41:30;31.37;42.19
64924;HTU21D;51436;44.692;39.214;2022-07-29T12:43:57;31.41;42.24
64924;HTU21D;51436;44.692;39.214;2022-07-29T12:46:29;31.44;42.55
64924;HTU21D;51436;44.692;39.214;2022-07-29T12:48:56;31.48;41.66
64924;HTU21D;51436;44.692;39.214;2022-07-29T12:51:37;31.48;42.52
64924;HTU21D;51436;44.692;39.214;2022-07-29T12:54:09;31.51;42.04
64924;HTU21D;51436;44.692;39.214;2022-07-29T12:56:36;31.49;42.82
64924;HTU21D;51436;44.692;39.214;2022-07-29T12:59:20;31.41;42.40
64924;HTU21D;51436;44.692;39.214;2022-07-29T13:01:49;31.39;41.62
64924;HTU21D;51436;44.692;39.214;2022-07-29T13:04:30;31.42;41.94
64924;HTU21D;51436;44.692;39.214;2022-07-29T13:07:04;31.45;41.72
64924;HTU21D;51436;44.692;39.214;2022-07-29T13:09:42;31.45;41.68
64924;HTU21D;51436;44.692;39.214;2022-07-29T13:12:10;31.48;41.84
64924;HTU21D;51436;44.692;39.214;2022-07-29T13:14:47;31.48;41.62
64924;HTU21D;51436;44.692;39.214;2022-07-29T13:19:51;31.50;41.26
64924;HTU21D;51436;44.692;39.214;2022-07-29T13:22:20;31.51;41.29
64924;HTU21D;51436;44.692;39.214;2022-07-29T13:24:54;31.54;41.70
64924;HTU21D;51436;44.692;39.214;2022-07-29T13:27:24;31.54;41.52
64924;HTU21D;51436;44.692;39.214;2022-07-29T13:29:51;31.53;41.30
64924;HTU21D;51436;44.692;39.214;2022-07-29T13:32:19;31.54;41.60
64924;HTU21D;51436;44.692;39.214;2022-07-29T13:34:46;31.54;42.12
64924;HTU21D;51436;44.692;39.214;2022-07-29T13:37:12;31.55;41.81
64924;HTU21D;51436;44.692;39.214;2022-07-29T13:39:39;31.51;41.81
64924;HTU21D;51436;44.692;39.214;2022-07-29T13:42:07;31.51;41.66
64924;HTU21D;51436;44.692;39.214;2022-07-29T13:44:36;31.46;41.61
64924;HTU21D;51436;44.692;39.214;2022-07-29T13:47:02;31.35;41.65
64924;HTU21D;51436;44.692;39.214;2022-07-29T13:49:29;31.36;41.55
64924;HTU21D;51436;44.692;39.214;2022-07-29T13:51:55;31.38;41.90
64924;HTU21D;51436;44.692;39.214;2022-07-29T13:54:22;31.40;41.73
64924;HTU21D;51436;44.692;39.214;2022-07-29T13:57:00;31.40;41.75
64924;HTU21D;51436;44.692;39.214;2022-07-29T13:59:26;31.43;41.61
64924;HTU21D;51436;44.692;39.214;2022-07-29T14:01:53;31.42;41.83
64924;HTU21D;51436;44.692;39.214;2022-07-29T14:04:19;31.42;41.97
64924;HTU21D;51436;44.692;39.214;2022-07-29T14:06:45;31.40;41.98
64924;HTU21D;51436;44.692;39.214;2022-07-29T14:09:12;31.37;41.87
64924;HTU21D;51436;44.692;39.214;2022-07-29T14:14:37;31.36;41.25
64924;HTU21D;51436;44.692;39.214;2022-07-29T14:17:04;31.34;41.12
64924;HTU21D;51436;44.692;39.214;2022-07-29T14:19:32;31.34;41.05
64924;HTU21D;51436;44.692;39.214;2022-07-29T14:22:03;31.33;41.63
64924;HTU21D;51436;44.692;39.214;2022-07-29T14:24:29;31.33;41.58
64924;HTU21D;51436;44.692;39.214;2022-07-29T14:29:43;31.30;41.89
64924;HTU21D;51436;44.692;39.214;2022-07-29T14:32:09;31.27;42.01
64924;HTU21D;51436;44.692;39.214;2022-07-29T14:34:37;31.25;41.77
64924;HTU21D;51436;44.692;39.214;2022-07-29T14:37:06;31.23;41.90
64924;HTU21D;51436;44.692;39.214;2022-07-29T14:39:34;31.22;41.69
64924;HTU21D;51436;44.692;39.214;2022-07-29T14:42:00;31.20;41.92
64924;HTU21D;51436;44.692;39.214;2022-07-29T14:47:13;31.15;41.96
64924;HTU21D;51436;44.692;39.214;2022-07-29T14:49:40;31.13;41.54
64924;HTU21D;51436;44.692;39.214;2022-07-29T14:52:07;31.11;41.60
64924;HTU21D;51436;44.692;39.214;2022-07-29T14:54:33;31.08;41.71
64924;HTU21D;51436;44.692;39.214;2022-07-29T14:56:59;31.07;41.50
64924;HTU21D;51436;44.692;39.214;2022-07-29T14:59:27;31.04;41.68
64924;HTU21D;51436;44.692;39.214;2022-07-29T15:02:00;31.00;42.10
64924;HTU21D;51436;44.692;39.214;2022-07-29T15:04:34;30.97;42.23
64924;HTU21D;51436;44.692;39.214;2022-07-29T15:07:00;30.94;42.42
64924;HTU21D;51436;44.692;39.214;2022-07-29T15:09:35;30.89;42.61
64924;HTU21D;51436;44.692;39.214;2022-07-29T15:12:01;30.82;42.71
64924;HTU21D;51436;44.692;39.214;2022-07-29T15:14:29;30.81;43.15
64924;HTU21D;51436;44.692;39.214;2022-07-29T15:16:55;30.78;43.43
64924;HTU21D;51436;44.692;39.214;2022-07-29T15:19:21;30.72;43.85
64924;HTU21D;51436;44.692;39.214;2022-07-29T15:21:49;30.69;44.18
64924;HTU21D;51436;44.692;39.214;2022-07-29T15:24:16;30.63;44.28
64924;HTU21D;51436;44.692;39.214;2022-07-29T15:26:43;30.59;44.41
64924;HTU21D;51436;44.692;39.214;2022-07-29T15:29:10;30.54;44.81
64924;HTU21D;51436;44.692;39.214;2022-07-29T15:31:38;30.50;45.05
64924;HTU21D;51436;44.692;39.214;2022-07-29T15:34:04;30.44;45.33
64924;HTU21D;51436;44.692;39.214;2022-07-29T15:36:31;30.38;45.57
64924;HTU21D;51436;44.692;39.214;2022-07-29T15:39:00;30.33;45.73
64924;HTU21D;51436;44.692;39.214;2022-07-29T15:41:28;30.28;46.02
64924;HTU21D;51436;44.692;39.214;2022-07-29T15:43:54;30.23;46.14
64924;HTU21D;51436;44.692;39.214;2022-07-29T15:46:43;30.18;46.48
64924;HTU21D;51436;44.692;39.214;2022-07-29T15:52:00;30.04;47.80
64924;HTU21D;51436;44.692;39.214;2022-07-29T15:54:27;29.97;48.21
64924;HTU21D;51436;44.692;39.214;2022-07-29T15:57:08;29.90;48.15
64924;HTU21D;51436;44.692;39.214;2022-07-29T15:59:35;29.83;48.35
64924;HTU21D;51436;44.692;39.214;2022-07-29T16:02:01;29.76;49.12
64924;HTU21D;51436;44.692;39.214;2022-07-29T16:04:28;29.70;50.36